createdAt,value
2017-06-04T00:00:36.889Z,0
2017-06-04T00:01:47.152Z,0
2017-06-04T00:02:57.423Z,0
2017-06-04T00:04:07.759Z,0
2017-06-04T00:05:18.024Z,0
2017-06-04T00:06:27.659Z,0
2017-06-04T00:07:37.928Z,0
2017-06-04T00:08:48.190Z,0
2017-06-04T00:09:58.449Z,0
2017-06-04T00:11:08.400Z,0
2017-06-04T00:12:18.668Z,0
2017-06-04T00:13:28.930Z,0
2017-06-04T00:14:38.569Z,0
2017-06-04T00:15:48.207Z,0
2017-06-04T00:16:58.465Z,0
2017-06-04T00:18:08.728Z,0
2017-06-04T00:19:18.989Z,0
2017-06-04T00:20:29.255Z,0
2017-06-04T00:21:39.205Z,0
2017-06-04T00:22:49.466Z,0
2017-06-04T00:23:59.730Z,0
2017-06-04T00:25:09.682Z,0
2017-06-04T00:26:19.945Z,0
2017-06-04T00:27:30.210Z,0
2017-06-04T00:28:40.474Z,0
2017-06-04T00:29:50.107Z,0
2017-06-04T00:31:00.373Z,0
2017-06-04T00:32:10.636Z,0
2017-06-04T00:33:20.903Z,0
2017-06-04T00:34:31.162Z,0
2017-06-04T00:35:41.414Z,0
2017-06-04T00:36:51.049Z,0
2017-06-04T00:38:00.688Z,0
2017-06-04T00:39:10.952Z,0
2017-06-04T00:40:20.905Z,0
2017-06-04T00:41:30.856Z,0
2017-06-04T00:42:40.489Z,0
2017-06-04T00:43:50.460Z,0
2017-06-04T00:45:00.745Z,0
2017-06-04T00:46:11.022Z,0
2017-06-04T00:47:20.970Z,0
2017-06-04T00:48:30.915Z,0
2017-06-04T00:49:41.193Z,0
2017-06-04T00:50:51.460Z,0
2017-06-04T00:52:01.093Z,0
2017-06-04T00:53:11.038Z,4
2017-06-04T00:54:21.299Z,4
2017-06-04T00:55:31.563Z,4
2017-06-04T00:56:41.515Z,4
2017-06-04T00:57:51.778Z,0
2017-06-04T00:59:02.035Z,0
2017-06-04T01:00:11.975Z,0
2017-06-04T01:01:22.242Z,0
2017-06-04T01:02:32.193Z,4
2017-06-04T01:03:42.453Z,4
2017-06-04T01:04:52.708Z,4
2017-06-04T01:06:02.977Z,4
2017-06-04T01:07:13.235Z,4
2017-06-04T01:08:23.697Z,4
2017-06-04T01:09:33.645Z,4
2017-06-04T01:10:43.616Z,4
2017-06-04T01:11:53.566Z,4
2017-06-04T01:13:03.510Z,4
2017-06-04T01:14:13.455Z,4
2017-06-04T01:15:23.723Z,4
2017-06-04T01:16:33.979Z,8
2017-06-04T01:17:44.249Z,4
2017-06-04T01:18:54.507Z,4
2017-06-04T01:20:04.142Z,4
2017-06-04T01:21:14.084Z,4
2017-06-04T01:22:24.350Z,4
2017-06-04T01:23:34.617Z,4
2017-06-04T01:24:44.568Z,8
2017-06-04T01:25:54.211Z,4
2017-06-04T01:27:04.472Z,8
2017-06-04T01:28:14.108Z,8
2017-06-04T01:29:24.365Z,8
2017-06-04T01:30:34.308Z,8
2017-06-04T01:31:44.566Z,8
2017-06-04T01:32:54.828Z,8
2017-06-04T01:34:05.096Z,12
2017-06-04T01:35:15.040Z,12
2017-06-04T01:36:25.311Z,8
2017-06-04T01:37:35.575Z,12
2017-06-04T01:38:45.853Z,12
2017-06-04T01:39:55.800Z,12
2017-06-04T01:41:06.060Z,16
2017-06-04T01:42:16.019Z,16
2017-06-04T01:43:25.667Z,20
2017-06-04T01:44:35.932Z,20
2017-06-04T01:45:46.199Z,20
2017-06-04T01:46:56.459Z,24
2017-06-04T01:48:06.720Z,24
2017-06-04T01:49:16.668Z,24
2017-06-04T01:50:26.926Z,28
2017-06-04T01:51:37.192Z,28
2017-06-04T01:52:47.457Z,28
2017-06-04T01:53:57.758Z,32
2017-06-04T01:55:08.027Z,36
2017-06-04T01:56:17.974Z,36
2017-06-04T01:57:28.236Z,44
2017-06-04T01:58:38.505Z,40
2017-06-04T01:59:48.767Z,48
2017-06-04T02:00:59.037Z,52
2017-06-04T02:02:09.306Z,56
2017-06-04T02:03:19.571Z,64
2017-06-04T02:04:29.828Z,64
2017-06-04T02:05:40.084Z,64
2017-06-04T02:06:50.694Z,68
2017-06-04T02:08:00.665Z,76
2017-06-04T02:09:10.619Z,84
2017-06-04T02:10:20.887Z,88
2017-06-04T02:11:30.516Z,84
2017-06-04T02:12:43.686Z,84
2017-06-04T02:13:53.634Z,84
2017-06-04T02:15:03.889Z,84
2017-06-04T02:16:13.571Z,84
2017-06-04T02:17:23.837Z,80
2017-06-04T02:18:34.303Z,80
2017-06-04T02:19:44.253Z,92
2017-06-04T02:20:54.521Z,100
2017-06-04T02:22:04.782Z,104
2017-06-04T02:23:14.737Z,104
2017-06-04T02:24:26.888Z,96
2017-06-04T02:25:36.836Z,88
2017-06-04T02:26:47.101Z,84
2017-06-04T02:27:56.767Z,92
2017-06-04T02:29:07.033Z,92
2017-06-04T02:30:17.289Z,92
2017-06-04T02:31:27.552Z,92
2017-06-04T02:32:37.194Z,92
2017-06-04T02:33:47.143Z,96
2017-06-04T02:34:57.296Z,104
2017-06-04T02:36:07.563Z,112
2017-06-04T02:37:17.838Z,112
2017-06-04T02:38:28.100Z,116
2017-06-04T02:39:38.049Z,120
2017-06-04T02:40:48.319Z,120
2017-06-04T02:41:58.578Z,124
2017-06-04T02:43:08.212Z,132
2017-06-04T02:44:18.476Z,140
2017-06-04T02:45:28.739Z,144
2017-06-04T02:46:38.364Z,156
2017-06-04T02:47:48.629Z,164
2017-06-04T02:48:58.895Z,176
2017-06-04T02:50:08.841Z,184
2017-06-04T02:51:19.105Z,208
2017-06-04T02:52:29.050Z,228
2017-06-04T02:53:39.310Z,244
2017-06-04T02:54:49.600Z,256
2017-06-04T02:55:59.869Z,276
2017-06-04T02:57:10.135Z,296
2017-06-04T02:58:20.399Z,328
2017-06-04T02:59:30.658Z,368
2017-06-04T03:00:40.922Z,404
2017-06-04T03:01:51.181Z,424
2017-06-04T03:03:01.135Z,440
2017-06-04T03:04:11.110Z,460
2017-06-04T03:05:21.373Z,452
2017-06-04T03:06:31.639Z,464
2017-06-04T03:07:41.901Z,504
2017-06-04T03:08:52.164Z,564
2017-06-04T03:10:02.427Z,624
2017-06-04T03:11:12.378Z,656
2017-06-04T03:12:22.681Z,636
2017-06-04T03:13:32.948Z,640
2017-06-04T03:14:42.904Z,660
2017-06-04T03:15:52.858Z,672
2017-06-04T03:17:03.125Z,680
2017-06-04T03:18:13.388Z,704
2017-06-04T03:19:23.679Z,700
2017-06-04T03:20:33.941Z,704
2017-06-04T03:21:43.320Z,732
2017-06-04T03:22:53.584Z,788
2017-06-04T03:24:03.532Z,860
2017-06-04T03:25:13.798Z,956
2017-06-04T03:26:24.064Z,1056
2017-06-04T03:27:33.697Z,1120
2017-06-04T03:28:43.651Z,1192
2017-06-04T03:29:53.910Z,1272
2017-06-04T03:31:03.860Z,1336
2017-06-04T03:32:14.127Z,1352
2017-06-04T03:33:24.087Z,1308
2017-06-04T03:34:34.034Z,1332
2017-06-04T03:35:44.298Z,1356
2017-06-04T03:36:54.558Z,1312
2017-06-04T03:38:04.505Z,1256
2017-06-04T03:39:14.766Z,1212
2017-06-04T03:40:25.029Z,1224
2017-06-04T03:41:34.979Z,1180
2017-06-04T03:42:45.246Z,1108
2017-06-04T03:43:55.521Z,1068
2017-06-04T03:45:05.149Z,1048
2017-06-04T03:46:15.413Z,1032
2017-06-04T03:47:25.674Z,1044
2017-06-04T03:48:35.621Z,1004
2017-06-04T03:49:45.886Z,964
2017-06-04T03:50:56.141Z,912
2017-06-04T03:52:06.084Z,848
2017-06-04T03:53:16.343Z,824
2017-06-04T03:54:26.605Z,944
2017-06-04T03:55:36.552Z,1168
2017-06-04T03:56:46.813Z,1280
2017-06-04T03:57:57.073Z,1372
2017-06-04T03:59:07.021Z,1428
2017-06-04T04:00:17.293Z,1636
2017-06-04T04:01:27.556Z,1584
2017-06-04T04:02:37.193Z,1668
2017-06-04T04:03:46.824Z,1692
2017-06-04T04:04:56.459Z,1896
2017-06-04T04:06:06.721Z,2056
2017-06-04T04:07:16.981Z,2292
2017-06-04T04:08:26.930Z,2612
2017-06-04T04:09:37.194Z,2860
2017-06-04T04:10:47.139Z,3064
2017-06-04T04:11:57.400Z,3324
2017-06-04T04:13:07.668Z,3572
2017-06-04T04:14:17.931Z,3436
2017-06-04T04:15:27.892Z,3368
2017-06-04T04:16:38.151Z,3176
2017-06-04T04:17:48.103Z,3044
2017-06-04T04:18:57.739Z,3236
2017-06-04T04:20:07.375Z,3580
2017-06-04T04:21:17.634Z,4244
2017-06-04T04:22:27.592Z,4488
2017-06-04T04:23:37.542Z,4504
2017-06-04T04:24:47.804Z,4420
2017-06-04T04:25:58.094Z,4104
2017-06-04T04:27:08.045Z,3688
2017-06-04T04:28:18.331Z,3580
2017-06-04T04:29:28.594Z,3688
2017-06-04T04:30:38.852Z,3876
2017-06-04T04:31:49.119Z,4200
2017-06-04T04:32:59.375Z,4344
2017-06-04T04:34:09.639Z,4380
2017-06-04T04:35:19.902Z,3944
2017-06-04T04:36:30.164Z,3572
2017-06-04T04:37:40.116Z,3396
2017-06-04T04:38:50.378Z,3292
2017-06-04T04:40:00.639Z,3260
2017-06-04T04:41:10.589Z,3140
2017-06-04T04:42:20.536Z,2960
2017-06-04T04:43:30.485Z,3064
2017-06-04T04:44:40.742Z,3312
2017-06-04T04:45:51.000Z,3268
2017-06-04T04:47:01.261Z,3348
2017-06-04T04:48:11.212Z,3228
2017-06-04T04:49:21.163Z,3116
2017-06-04T04:50:31.429Z,3052
2017-06-04T04:51:41.381Z,2992
2017-06-04T04:52:51.639Z,3208
2017-06-04T04:54:01.903Z,3088
2017-06-04T04:55:11.540Z,3168
2017-06-04T04:56:21.486Z,3372
2017-06-04T04:57:31.752Z,3548
2017-06-04T04:58:42.022Z,3608
2017-06-04T04:59:52.284Z,3668
2017-06-04T05:01:02.544Z,3796
2017-06-04T05:02:12.808Z,3892
2017-06-04T05:03:22.760Z,3944
2017-06-04T05:04:33.022Z,4176
2017-06-04T05:05:42.969Z,4640
2017-06-04T05:06:52.927Z,4896
2017-06-04T05:08:03.191Z,4892
2017-06-04T05:09:13.143Z,4672
2017-06-04T05:10:23.407Z,4524
2017-06-04T05:11:33.366Z,4448
2017-06-04T05:12:43.313Z,4252
2017-06-04T05:13:53.574Z,4300
2017-06-04T05:15:03.527Z,4580
2017-06-04T05:16:13.494Z,4868
2017-06-04T05:17:23.767Z,5204
2017-06-04T05:18:34.031Z,5588
2017-06-04T05:19:43.988Z,5852
2017-06-04T05:20:53.938Z,5848
2017-06-04T05:22:03.891Z,6048
2017-06-04T05:23:14.157Z,5988
2017-06-04T05:24:24.125Z,5936
2017-06-04T05:25:34.390Z,5716
2017-06-04T05:26:44.655Z,5692
2017-06-04T05:27:54.941Z,5528
2017-06-04T05:29:04.890Z,5372
2017-06-04T05:30:15.164Z,5208
2017-06-04T05:31:25.463Z,5220
2017-06-04T05:32:35.412Z,5520
2017-06-04T05:33:45.675Z,5768
2017-06-04T05:34:55.948Z,6216
2017-06-04T05:36:05.585Z,6524
2017-06-04T05:37:15.852Z,6760
2017-06-04T05:38:26.118Z,6680
2017-06-04T05:39:36.391Z,6428
2017-06-04T05:40:46.657Z,6192
2017-06-04T05:41:56.924Z,6232
2017-06-04T05:43:07.182Z,6224
2017-06-04T05:44:17.129Z,6204
2017-06-04T05:45:27.396Z,6556
2017-06-04T05:46:37.659Z,6092
2017-06-04T05:47:46.983Z,5728
2017-06-04T05:48:57.243Z,5584
2017-06-04T05:50:07.194Z,5452
2017-06-04T05:51:17.466Z,5796
2017-06-04T05:52:27.415Z,5932
2017-06-04T05:53:37.680Z,5944
2017-06-04T05:54:47.953Z,6496
2017-06-04T05:55:58.215Z,7304
2017-06-04T05:57:08.160Z,7952
2017-06-04T05:58:18.420Z,8116
2017-06-04T05:59:28.688Z,8620
2017-06-04T06:00:38.655Z,9116
2017-06-04T06:01:48.930Z,9436
2017-06-04T06:02:59.192Z,9308
2017-06-04T06:04:09.451Z,8960
2017-06-04T06:05:19.750Z,8320
2017-06-04T06:06:30.021Z,7988
2017-06-04T06:07:40.297Z,8128
2017-06-04T06:08:50.250Z,8360
2017-06-04T06:10:00.514Z,8868
2017-06-04T06:11:10.150Z,9400
2017-06-04T06:12:20.417Z,10100
2017-06-04T06:13:30.680Z,10756
2017-06-04T06:14:40.634Z,10812
2017-06-04T06:15:50.586Z,10304
2017-06-04T06:17:00.546Z,9504
2017-06-04T06:18:10.820Z,8564
2017-06-04T06:19:21.085Z,8208
2017-06-04T06:20:31.361Z,8052
2017-06-04T06:21:41.305Z,7988
2017-06-04T06:22:51.575Z,8052
2017-06-04T06:24:01.843Z,8136
2017-06-04T06:25:12.308Z,8312
2017-06-04T06:26:21.948Z,8348
2017-06-04T06:27:32.228Z,8468
2017-06-04T06:28:42.507Z,8516
2017-06-04T06:29:52.777Z,8456
2017-06-04T06:31:03.051Z,8968
2017-06-04T06:32:13.005Z,9116
2017-06-04T06:33:22.967Z,9028
2017-06-04T06:34:33.228Z,9132
2017-06-04T06:35:43.501Z,9256
2017-06-04T06:36:53.774Z,9216
2017-06-04T06:38:04.034Z,9228
2017-06-04T06:39:13.998Z,9156
2017-06-04T06:40:23.954Z,8656
2017-06-04T06:41:34.251Z,8268
2017-06-04T06:42:44.515Z,7928
2017-06-04T06:43:54.478Z,7708
2017-06-04T06:45:04.433Z,7920
2017-06-04T06:46:14.382Z,8116
2017-06-04T06:47:24.643Z,8568
2017-06-04T06:48:34.287Z,9240
2017-06-04T06:49:44.556Z,9756
2017-06-04T06:50:54.510Z,10420
2017-06-04T06:52:04.779Z,10664
2017-06-04T06:53:14.730Z,10748
2017-06-04T06:54:24.993Z,10684
2017-06-04T06:55:34.943Z,10472
2017-06-04T06:56:45.207Z,10128
2017-06-04T06:57:55.159Z,9792
2017-06-04T06:59:05.430Z,9620
2017-06-04T07:00:15.069Z,9604
2017-06-04T07:01:25.330Z,9788
2017-06-04T07:02:35.597Z,10032
2017-06-04T07:03:45.550Z,10192
2017-06-04T07:04:55.818Z,10120
2017-06-04T07:06:06.082Z,9744
2017-06-04T07:07:16.344Z,9328
2017-06-04T07:08:26.615Z,8948
2017-06-04T07:09:36.255Z,8628
2017-06-04T07:10:46.220Z,8320
2017-06-04T07:11:56.484Z,7964
2017-06-04T07:13:06.749Z,7596
2017-06-04T07:14:16.698Z,7216
2017-06-04T07:15:26.342Z,6940
2017-06-04T07:16:36.606Z,6876
2017-06-04T07:17:46.864Z,6720
2017-06-04T07:18:56.816Z,6124
2017-06-04T07:20:07.082Z,5384
2017-06-04T07:21:17.350Z,4940
2017-06-04T07:22:27.299Z,4912
2017-06-04T07:23:36.936Z,5120
2017-06-04T07:24:46.888Z,5168
2017-06-04T07:25:57.150Z,4984
2017-06-04T07:27:07.415Z,4684
2017-06-04T07:28:17.688Z,4356
2017-06-04T07:29:27.638Z,4024
2017-06-04T07:30:37.588Z,3784
2017-06-04T07:31:47.860Z,3672
2017-06-04T07:32:58.128Z,3724
2017-06-04T07:34:08.084Z,4048
2017-06-04T07:35:18.349Z,4400
2017-06-04T07:36:28.614Z,4544
2017-06-04T07:37:38.889Z,4740
2017-06-04T07:38:49.157Z,4848
2017-06-04T07:39:59.427Z,5020
2017-06-04T07:41:09.694Z,5320
2017-06-04T07:42:19.973Z,5424
2017-06-04T07:43:30.239Z,5592
2017-06-04T07:44:40.195Z,6076
2017-06-04T07:45:50.460Z,6736
2017-06-04T07:47:00.726Z,7388
2017-06-04T07:48:10.996Z,7932
2017-06-04T07:49:21.257Z,8120
2017-06-04T07:50:31.556Z,7976
2017-06-04T07:51:41.511Z,7500
2017-06-04T07:52:51.778Z,6940
2017-06-04T07:54:02.061Z,6392
2017-06-04T07:55:12.017Z,6128
2017-06-04T07:56:22.289Z,6128
2017-06-04T07:57:32.560Z,6104
2017-06-04T07:58:42.821Z,5764
2017-06-04T07:59:53.088Z,5140
2017-06-04T08:01:03.352Z,4624
2017-06-04T08:02:13.622Z,4352
2017-06-04T08:03:23.890Z,4232
2017-06-04T08:04:34.163Z,4228
2017-06-04T08:05:43.801Z,4260
2017-06-04T08:06:53.748Z,4304
2017-06-04T08:08:04.009Z,4436
2017-06-04T08:09:13.963Z,4592
2017-06-04T08:10:24.227Z,5036
2017-06-04T08:11:34.492Z,5520
2017-06-04T08:12:44.758Z,5692
2017-06-04T08:13:55.024Z,5964
2017-06-04T08:15:04.659Z,6600
2017-06-04T08:16:14.925Z,6724
2017-06-04T08:17:25.186Z,6400
2017-06-04T08:18:35.456Z,6556
2017-06-04T08:19:45.719Z,7092
2017-06-04T08:20:55.977Z,7544
2017-06-04T08:22:05.937Z,7644
2017-06-04T08:23:16.206Z,7668
2017-06-04T08:24:26.471Z,7464
2017-06-04T08:25:36.730Z,7100
2017-06-04T08:26:46.681Z,6824
2017-06-04T08:27:56.947Z,7388
2017-06-04T08:29:07.209Z,7856
2017-06-04T08:30:17.477Z,7904
2017-06-04T08:31:27.746Z,8064
2017-06-04T08:32:38.015Z,7684
2017-06-04T08:33:48.282Z,7536
2017-06-04T08:34:58.550Z,8640
2017-06-04T08:36:08.499Z,10288
2017-06-04T08:37:18.765Z,11276
2017-06-04T08:38:29.030Z,11948
2017-06-04T08:39:39.303Z,11484
2017-06-04T08:40:48.941Z,10640
2017-06-04T08:41:59.204Z,10196
2017-06-04T08:43:09.467Z,10364
2017-06-04T08:44:19.732Z,10972
2017-06-04T08:45:29.998Z,11764
2017-06-04T08:46:39.952Z,12640
2017-06-04T08:47:50.216Z,12896
2017-06-04T08:48:59.855Z,13284
2017-06-04T08:50:10.118Z,13408
2017-06-04T08:51:20.385Z,13272
2017-06-04T08:52:30.649Z,13584
2017-06-04T08:53:40.928Z,13832
2017-06-04T08:54:51.233Z,14484
2017-06-04T08:56:01.528Z,15504
2017-06-04T08:57:11.798Z,16512
2017-06-04T08:58:22.064Z,16928
2017-06-04T08:59:32.328Z,17216
2017-06-04T09:00:42.599Z,17312
2017-06-04T09:01:52.550Z,17568
2017-06-04T09:03:02.812Z,17600
2017-06-04T09:04:12.783Z,17376
2017-06-04T09:05:23.054Z,16416
2017-06-04T09:06:33.320Z,15684
2017-06-04T09:07:43.583Z,15628
2017-06-04T09:08:53.851Z,15916
2017-06-04T09:10:03.493Z,15496
2017-06-04T09:11:13.451Z,14712
2017-06-04T09:12:23.722Z,13512
2017-06-04T09:13:33.990Z,11204
2017-06-04T09:14:44.265Z,9160
2017-06-04T09:15:54.534Z,8032
2017-06-04T09:17:04.801Z,7012
2017-06-04T09:18:14.132Z,6336
2017-06-04T09:19:24.403Z,5996
2017-06-04T09:20:34.359Z,5884
2017-06-04T09:21:43.995Z,5628
2017-06-04T09:22:54.270Z,5648
2017-06-04T09:24:04.219Z,6312
2017-06-04T09:25:13.860Z,6440
2017-06-04T09:26:23.821Z,5800
2017-06-04T09:27:34.094Z,5012
2017-06-04T09:28:44.363Z,4124
2017-06-04T09:29:54.627Z,3448
2017-06-04T09:31:04.586Z,2968
2017-06-04T09:32:14.541Z,2868
2017-06-04T09:33:24.808Z,2784
2017-06-04T09:34:34.762Z,2616
2017-06-04T09:35:45.030Z,2580
2017-06-04T09:36:55.298Z,2672
2017-06-04T09:38:05.570Z,2652
2017-06-04T09:39:15.838Z,2708
2017-06-04T09:40:25.795Z,2948
2017-06-04T09:41:35.745Z,3516
2017-06-04T09:42:46.011Z,4260
2017-06-04T09:43:55.966Z,4660
2017-06-04T09:45:06.234Z,4504
2017-06-04T09:46:16.190Z,4016
2017-06-04T09:47:26.141Z,4056
2017-06-04T09:48:35.783Z,5172
2017-06-04T09:49:46.044Z,6456
2017-06-04T09:50:56.025Z,6780
2017-06-04T09:52:06.286Z,7196
2017-06-04T09:53:16.242Z,7564
2017-06-04T09:54:26.501Z,6652
2017-06-04T09:55:36.769Z,5944
2017-06-04T09:56:47.031Z,5652
2017-06-04T09:57:57.300Z,5528
2017-06-04T09:59:07.567Z,5552
2017-06-04T10:00:17.827Z,5188
2017-06-04T10:01:28.104Z,5036
2017-06-04T10:02:38.365Z,5116
2017-06-04T10:03:48.344Z,4924
2017-06-04T10:04:58.612Z,4792
2017-06-04T10:06:08.882Z,4644
2017-06-04T10:07:19.150Z,4236
2017-06-04T10:08:29.101Z,3792
2017-06-04T10:09:39.368Z,3408
2017-06-04T10:10:49.630Z,3164
2017-06-04T10:11:59.578Z,3036
2017-06-04T10:13:09.216Z,2980
2017-06-04T10:14:19.165Z,3032
2017-06-04T10:15:29.424Z,3284
2017-06-04T10:16:39.686Z,3768
2017-06-04T10:17:49.947Z,4452
2017-06-04T10:19:00.212Z,5296
2017-06-04T10:20:10.168Z,5904
2017-06-04T10:21:20.434Z,6296
2017-06-04T10:22:30.699Z,6596
2017-06-04T10:23:40.974Z,6428
2017-06-04T10:24:51.239Z,6296
2017-06-04T10:26:01.508Z,6144
2017-06-04T10:27:11.458Z,5912
2017-06-04T10:28:21.406Z,5644
2017-06-04T10:29:31.042Z,5404
2017-06-04T10:30:41.306Z,5404
2017-06-04T10:31:50.940Z,5820
2017-06-04T10:33:01.201Z,6108
2017-06-04T10:34:10.837Z,6520
2017-06-04T10:35:21.106Z,7060
2017-06-04T10:36:31.053Z,7148
2017-06-04T10:37:41.326Z,7008
2017-06-04T10:38:51.593Z,6408
2017-06-04T10:40:01.857Z,5948
2017-06-04T10:41:12.122Z,5896
2017-06-04T10:42:22.071Z,5284
2017-06-04T10:43:32.021Z,4376
2017-06-04T10:44:42.281Z,4060
2017-06-04T10:45:52.549Z,4016
2017-06-04T10:47:02.816Z,4024
2017-06-04T10:48:13.085Z,4144
2017-06-04T10:49:23.041Z,4168
2017-06-04T10:50:33.313Z,4364
2017-06-04T10:51:43.572Z,4852
2017-06-04T10:52:53.838Z,5016
2017-06-04T10:54:03.780Z,4776
2017-06-04T10:55:14.034Z,4348
2017-06-04T10:56:24.292Z,3696
2017-06-04T10:57:34.555Z,3020
2017-06-04T10:58:44.511Z,2724
2017-06-04T10:59:54.774Z,2712
2017-06-04T11:01:04.739Z,2756
2017-06-04T11:02:15.010Z,2516
2017-06-04T11:03:25.267Z,2116
2017-06-04T11:04:35.565Z,1836
2017-06-04T11:05:44.889Z,1704
2017-06-04T11:06:55.152Z,1724
2017-06-04T11:08:05.131Z,1804
2017-06-04T11:09:15.406Z,1908
2017-06-04T11:10:25.664Z,2076
2017-06-04T11:11:35.935Z,2236
2017-06-04T11:12:46.203Z,2300
2017-06-04T11:13:56.461Z,2384
2017-06-04T11:15:06.726Z,2552
2017-06-04T11:16:16.989Z,2844
2017-06-04T11:17:27.254Z,3316
2017-06-04T11:18:37.517Z,4104
2017-06-04T11:19:47.788Z,5652
2017-06-04T11:20:58.049Z,7496
2017-06-04T11:22:08.313Z,9216
2017-06-04T11:23:18.264Z,9148
2017-06-04T11:24:28.526Z,8516
2017-06-04T11:25:38.791Z,8056
2017-06-04T11:26:49.050Z,7444
2017-06-04T11:27:59.317Z,7816
2017-06-04T11:29:09.579Z,8640
2017-06-04T11:30:19.844Z,8028
2017-06-04T11:31:29.792Z,7324
2017-06-04T11:32:39.749Z,6868
2017-06-04T11:33:50.023Z,7116
2017-06-04T11:35:00.292Z,7916
2017-06-04T11:36:09.926Z,8752
2017-06-04T11:37:20.197Z,9792
2017-06-04T11:38:30.150Z,11284
2017-06-04T11:39:39.469Z,12076
2017-06-04T11:40:49.728Z,10580
2017-06-04T11:41:59.993Z,8740
2017-06-04T11:43:09.971Z,7780
2017-06-04T11:44:20.234Z,6872
2017-06-04T11:45:30.337Z,6296
2017-06-04T11:46:40.288Z,5628
2017-06-04T11:47:50.551Z,5068
2017-06-04T11:49:00.815Z,5204
2017-06-04T11:50:10.763Z,5596
2017-06-04T11:51:21.021Z,5896
2017-06-04T11:52:31.290Z,6192
2017-06-04T11:53:40.926Z,6560
2017-06-04T11:54:50.882Z,7028
2017-06-04T11:56:01.168Z,7752
2017-06-04T11:57:11.432Z,8260
2017-06-04T11:58:21.703Z,8260
2017-06-04T11:59:31.978Z,7816
2017-06-04T12:00:42.235Z,7228
2017-06-04T12:01:52.192Z,6608
2017-06-04T12:03:02.482Z,6340
2017-06-04T12:04:12.433Z,6088
2017-06-04T12:05:22.700Z,5968
2017-06-04T12:06:32.984Z,5892
2017-06-04T12:07:42.934Z,6324
2017-06-04T12:08:52.594Z,6748
2017-06-04T12:10:02.870Z,6716
2017-06-04T12:11:13.134Z,5688
2017-06-04T12:12:23.089Z,4388
2017-06-04T12:13:33.354Z,3756
2017-06-04T12:14:43.614Z,3952
2017-06-04T12:15:53.561Z,3884
2017-06-04T12:17:03.822Z,3768
2017-06-04T12:18:14.088Z,3480
2017-06-04T12:19:24.353Z,3184
2017-06-04T12:20:34.618Z,3032
2017-06-04T12:21:44.576Z,3016
2017-06-04T12:22:54.833Z,2944
2017-06-04T12:24:04.780Z,2856
2017-06-04T12:25:14.737Z,2896
2017-06-04T12:26:25.001Z,3264
2017-06-04T12:27:35.265Z,3768
2017-06-04T12:28:45.524Z,3936
2017-06-04T12:29:55.484Z,3928
2017-06-04T12:31:05.757Z,3776
2017-06-04T12:32:15.392Z,3360
2017-06-04T12:33:25.344Z,3236
2017-06-04T12:34:35.613Z,3216
2017-06-04T12:35:45.560Z,3408
2017-06-04T12:36:55.820Z,3576
2017-06-04T12:38:05.774Z,3688
2017-06-04T12:39:15.721Z,3928
2017-06-04T12:40:25.985Z,4232
2017-06-04T12:41:36.256Z,4172
2017-06-04T12:42:46.524Z,3888
2017-06-04T12:43:56.792Z,3748
2017-06-04T12:45:07.059Z,3820
2017-06-04T12:46:17.012Z,3712
2017-06-04T12:47:26.955Z,3824
2017-06-04T12:48:36.913Z,4124
2017-06-04T12:49:46.863Z,4528
2017-06-04T12:50:57.137Z,4748
2017-06-04T12:52:07.403Z,4784
2017-06-04T12:53:17.356Z,4720
2017-06-04T12:54:27.616Z,4736
2017-06-04T12:55:37.877Z,5004
2017-06-04T12:56:47.827Z,4916
2017-06-04T12:57:58.089Z,4556
2017-06-04T12:59:08.044Z,4172
2017-06-04T13:00:18.308Z,3864
2017-06-04T13:01:28.261Z,3780
2017-06-04T13:02:37.901Z,3872
2017-06-04T13:03:48.165Z,3932
2017-06-04T13:04:58.434Z,4000
2017-06-04T13:06:08.390Z,3808
2017-06-04T13:07:18.346Z,3420
2017-06-04T13:08:28.609Z,2976
2017-06-04T13:09:38.566Z,2740
2017-06-04T13:10:48.520Z,2576
2017-06-04T13:11:58.784Z,2332
2017-06-04T13:13:09.052Z,2296
2017-06-04T13:14:19.316Z,2444
2017-06-04T13:15:29.577Z,2536
2017-06-04T13:16:39.531Z,2332
2017-06-04T13:17:49.483Z,2660
2017-06-04T13:18:59.438Z,2988
2017-06-04T13:20:09.392Z,2812
2017-06-04T13:21:19.685Z,2756
2017-06-04T13:22:29.948Z,2768
2017-06-04T13:23:40.214Z,2560
2017-06-04T13:24:50.473Z,2472
2017-06-04T13:26:00.739Z,2572
2017-06-04T13:27:11.007Z,2624
2017-06-04T13:28:20.949Z,2936
2017-06-04T13:29:31.242Z,3496
2017-06-04T13:30:41.196Z,3760
2017-06-04T13:31:51.465Z,3804
2017-06-04T13:33:01.734Z,3712
2017-06-04T13:34:11.995Z,3744
2017-06-04T13:35:22.253Z,3780
2017-06-04T13:36:32.206Z,3824
2017-06-04T13:37:42.473Z,4156
2017-06-04T13:38:52.428Z,4624
2017-06-04T13:40:02.067Z,5212
2017-06-04T13:41:12.338Z,5704
2017-06-04T13:42:22.289Z,6016
2017-06-04T13:43:32.234Z,6360
2017-06-04T13:44:42.502Z,6700
2017-06-04T13:45:52.135Z,6920
2017-06-04T13:47:02.086Z,6952
2017-06-04T13:48:12.037Z,6852
2017-06-04T13:49:21.987Z,6664
2017-06-04T13:50:31.936Z,6568
2017-06-04T13:51:42.199Z,6704
2017-06-04T13:52:52.464Z,7012
2017-06-04T13:54:02.429Z,7384
2017-06-04T13:55:12.691Z,7856
2017-06-04T13:56:22.634Z,8188
2017-06-04T13:57:32.582Z,8320
2017-06-04T13:58:42.849Z,8288
2017-06-04T13:59:52.484Z,7996
2017-06-04T14:01:02.432Z,7504
2017-06-04T14:02:12.386Z,7124
2017-06-04T14:03:22.333Z,6952
2017-06-04T14:04:32.594Z,6796
2017-06-04T14:05:42.555Z,6604
2017-06-04T14:06:52.827Z,6612
2017-06-04T14:08:03.091Z,6728
2017-06-04T14:09:13.047Z,6760
2017-06-04T14:10:23.317Z,6576
2017-06-04T14:11:32.962Z,6312
2017-06-04T14:12:43.225Z,6112
2017-06-04T14:13:53.488Z,5964
2017-06-04T14:15:03.754Z,5856
2017-06-04T14:16:13.703Z,5908
2017-06-04T14:17:23.659Z,6064
2017-06-04T14:18:33.923Z,6188
2017-06-04T14:19:44.193Z,5856
2017-06-04T14:20:54.137Z,5448
2017-06-04T14:22:04.085Z,5084
2017-06-04T14:23:14.036Z,4756
2017-06-04T14:24:24.302Z,5204
2017-06-04T14:25:34.250Z,6312
2017-06-04T14:26:44.200Z,6732
2017-06-04T14:27:54.464Z,6736
2017-06-04T14:29:04.103Z,6616
2017-06-04T14:30:14.368Z,6896
2017-06-04T14:31:24.639Z,7156
2017-06-04T14:32:34.594Z,7076
2017-06-04T14:33:44.860Z,7268
2017-06-04T14:34:55.124Z,7340
2017-06-04T14:36:05.390Z,7440
2017-06-04T14:37:15.339Z,7556
2017-06-04T14:38:25.608Z,8012
2017-06-04T14:39:35.563Z,8572
2017-06-04T14:40:45.524Z,8856
2017-06-04T14:41:55.802Z,8904
2017-06-04T14:43:05.755Z,8880
2017-06-04T14:44:16.022Z,8584
2017-06-04T14:45:25.981Z,8148
2017-06-04T14:46:36.254Z,7692
2017-06-04T14:47:46.517Z,7268
2017-06-04T14:48:56.786Z,6772
2017-06-04T14:50:07.051Z,6344
2017-06-04T14:51:17.000Z,5908
2017-06-04T14:52:27.270Z,5144
2017-06-04T14:53:37.533Z,4212
2017-06-04T14:54:47.498Z,3532
2017-06-04T14:55:57.445Z,3120
2017-06-04T14:57:07.715Z,2708
2017-06-04T14:58:17.983Z,2432
2017-06-04T14:59:28.246Z,2208
2017-06-04T15:00:38.194Z,2056
2017-06-04T15:01:48.458Z,1996
2017-06-04T15:02:58.410Z,1988
2017-06-04T15:04:08.675Z,2016
2017-06-04T15:05:18.945Z,2092
2017-06-04T15:06:29.213Z,2228
2017-06-04T15:07:39.475Z,2492
2017-06-04T15:08:49.739Z,2848
2017-06-04T15:09:59.998Z,3188
2017-06-04T15:11:09.948Z,3440
2017-06-04T15:12:20.208Z,3768
2017-06-04T15:13:30.472Z,4180
2017-06-04T15:14:40.421Z,4364
2017-06-04T15:15:50.687Z,4340
2017-06-04T15:17:00.669Z,4204
2017-06-04T15:18:10.929Z,4004
2017-06-04T15:19:21.198Z,3908
2017-06-04T15:20:31.468Z,4032
2017-06-04T15:21:41.420Z,4256
2017-06-04T15:22:51.371Z,4588
2017-06-04T15:24:01.317Z,4948
2017-06-04T15:25:11.581Z,5244
2017-06-04T15:26:21.845Z,5420
2017-06-04T15:27:31.795Z,5480
2017-06-04T15:28:42.056Z,5464
2017-06-04T15:29:52.325Z,5376
2017-06-04T15:31:02.273Z,5268
2017-06-04T15:32:12.535Z,5260
2017-06-04T15:33:22.794Z,5156
2017-06-04T15:34:33.057Z,4940
2017-06-04T15:35:43.009Z,4624
2017-06-04T15:36:52.958Z,4252
2017-06-04T15:38:03.228Z,3832
2017-06-04T15:39:13.474Z,3512
2017-06-04T15:40:23.748Z,3312
2017-06-04T15:41:34.013Z,3296
2017-06-04T15:42:44.277Z,3284
2017-06-04T15:43:54.555Z,3420
2017-06-04T15:45:04.821Z,3504
2017-06-04T15:46:14.778Z,3572